Time;durP1;ratioP1;P1;durP2;ratioP2;P2;SDS_P1;SDS_P2;PMS_P1;PMS_P2;Temp;Humidity;BMP_temperature;BMP_pressure;BME280_temperature;BME280_humidity;BME280_pressure;Samples;Min_cycle;Max_cycle;Signal;HPM_P1;HPM_P2
2022/11/12 00:00:25;;;;;;;5.07;3.17;;;8.30;99.90;;;;;;4996893;28;20521;-44
2022/11/12 00:02:51;;;;;;;6.22;3.38;;;8.20;99.90;;;;;;5000934;28;20031;-46
2022/11/12 00:05:16;;;;;;;5.53;3.35;;;8.10;99.90;;;;;;4994861;28;20486;-45
2022/11/12 00:07:42;;;;;;;6.10;3.55;;;7.90;99.90;;;;;;5002035;28;20034;-45
2022/11/12 00:10:09;;;;;;;7.65;3.90;;;8.00;99.90;;;;;;4994660;28;20113;-45
2022/11/12 00:12:34;;;;;;;8.00;3.80;;;7.90;99.90;;;;;;4999872;28;20021;-48
2022/11/12 00:15:01;;;;;;;5.30;3.78;;;7.90;99.90;;;;;;4998757;28;20075;-46
2022/11/12 00:17:26;;;;;;;5.22;3.67;;;7.80;99.90;;;;;;5006213;28;20032;-46
2022/11/12 00:19:52;;;;;;;7.10;3.75;;;7.70;99.90;;;;;;5076171;28;20405;-48
2022/11/12 00:22:19;;;;;;;5.93;3.25;;;7.70;99.90;;;;;;4995658;28;20069;-45
2022/11/12 00:24:47;;;;;;;6.32;3.97;;;7.60;99.90;;;;;;4999086;28;20471;-48
2022/11/12 00:27:13;;;;;;;6.50;4.13;;;7.50;99.90;;;;;;4997323;28;20032;-45
2022/11/12 00:29:39;;;;;;;9.73;4.13;;;7.50;99.90;;;;;;5007608;28;20010;-45
2022/11/12 00:32:06;;;;;;;6.47;3.65;;;7.50;99.90;;;;;;4995497;28;20532;-45
2022/11/12 00:34:32;;;;;;;6.40;3.95;;;7.40;99.90;;;;;;5007358;28;20106;-49
2022/11/12 00:36:58;;;;;;;6.90;4.10;;;7.40;99.90;;;;;;5003519;28;20022;-45
2022/11/12 00:39:24;;;;;;;7.18;3.80;;;7.40;99.90;;;;;;5002555;28;20555;-46
2022/11/12 00:41:50;;;;;;;6.72;4.28;;;7.50;99.90;;;;;;4996662;28;20109;-48
2022/11/12 00:44:16;;;;;;;10.45;3.88;;;7.50;99.90;;;;;;4997285;28;20340;-45
2022/11/12 00:46:41;;;;;;;5.30;3.90;;;7.60;99.90;;;;;;5000274;28;20459;-45
2022/11/12 00:49:08;;;;;;;5.32;3.75;;;7.60;99.90;;;;;;4998079;28;20689;-46
2022/11/12 00:51:34;;;;;;;5.55;3.42;;;7.60;99.90;;;;;;5004374;28;20108;-46
2022/11/12 00:54:00;;;;;;;4.00;3.10;;;7.60;99.90;;;;;;4995618;28;20018;-46
2022/11/12 00:56:25;;;;;;;4.20;3.10;;;7.50;99.90;;;;;;5004392;28;20159;-47
2022/11/12 00:58:51;;;;;;;5.82;3.25;;;7.50;99.90;;;;;;4997364;28;20550;-47
2022/11/12 01:01:17;;;;;;;5.10;3.45;;;7.50;99.90;;;;;;4997748;28;20033;-45
2022/11/12 01:03:42;;;;;;;4.82;3.17;;;7.50;99.90;;;;;;5001224;28;20355;-45
2022/11/12 01:06:14;;;;;;;4.38;2.97;;;7.50;99.90;;;;;;4999557;28;20365;-47
2022/11/12 01:08:40;;;;;;;5.45;3.33;;;7.60;99.90;;;;;;4998342;28;20021;-46
2022/11/12 01:11:12;;;;;;;5.43;2.97;;;7.60;99.90;;;;;;5000510;28;20027;-46
2022/11/12 01:13:40;;;;;;;5.10;2.60;;;7.70;99.90;;;;;;4998055;28;20102;-46
2022/11/12 01:16:08;;;;;;;4.80;2.80;;;7.80;99.90;;;;;;4998959;28;20022;-46
2022/11/12 01:18:34;;;;;;;4.22;2.50;;;7.80;99.90;;;;;;5001594;28;20229;-46
2022/11/12 01:21:04;;;;;;;5.35;2.60;;;7.90;99.90;;;;;;4999769;28;20033;-46
2022/11/12 01:23:35;;;;;;;5.68;2.67;;;7.90;99.90;;;;;;4997316;28;20029;-46
2022/11/12 01:26:05;;;;;;;5.68;3.10;;;7.90;99.90;;;;;;5002041;28;20026;-44
2022/11/12 01:28:31;;;;;;;4.70;2.80;;;7.90;99.90;;;;;;4999737;28;20042;-48
2022/11/12 01:30:57;;;;;;;6.07;3.28;;;7.90;99.90;;;;;;4996653;28;20068;-46
2022/11/12 01:33:23;;;;;;;4.95;3.55;;;7.90;99.90;;;;;;4998076;28;20030;-45
2022/11/12 01:35:49;;;;;;;4.43;3.10;;;7.90;99.90;;;;;;4997074;28;20033;-46
2022/11/12 01:38:14;;;;;;;4.32;3.28;;;7.80;99.90;;;;;;5000819;28;20033;-46
2022/11/12 01:40:40;;;;;;;6.20;3.33;;;7.90;99.90;;;;;;4997051;28;20036;-45
2022/11/12 01:43:12;;;;;;;5.93;2.60;;;7.90;99.90;;;;;;5002460;28;20356;-44
2022/11/12 01:45:43;;;;;;;6.45;3.85;;;7.90;99.90;;;;;;4997432;28;20026;-45
2022/11/12 01:48:23;;;;;;;5.88;2.97;;;8.00;99.90;;;;;;5001223;28;20025;-46
2022/11/12 01:50:50;;;;;;;4.10;2.80;;;8.00;99.90;;;;;;4994608;28;20128;-49
2022/11/12 01:53:17;;;;;;;7.05;3.33;;;8.10;99.90;;;;;;5001796;28;21279;-45
2022/11/12 01:55:42;;;;;;;10.55;3.72;;;8.10;99.90;;;;;;4999214;28;20018;-46
2022/11/12 01:58:11;;;;;;;4.97;3.03;;;8.10;99.90;;;;;;5003291;28;20113;-46
2022/11/12 02:00:38;;;;;;;5.00;3.05;;;8.10;99.90;;;;;;5001064;28;20488;-45
2022/11/12 02:03:11;;;;;;;3.65;2.83;;;8.00;99.90;;;;;;4997693;28;20508;-45
2022/11/12 02:05:38;;;;;;;5.68;3.10;;;8.00;99.90;;;;;;5001666;28;20018;-46
2022/11/12 02:08:06;;;;;;;4.43;2.85;;;7.90;99.90;;;;;;4996612;28;20023;-46
2022/11/12 02:10:34;;;;;;;7.35;3.40;;;7.90;99.90;;;;;;5000006;28;20509;-45
2022/11/12 02:15:44;;;;;;;4.22;2.78;;;7.90;99.90;;;;;;4993972;28;20025;-45
2022/11/12 02:18:09;;;;;;;19.40;3.58;;;7.90;99.90;;;;;;5006810;28;20026;-46
2022/11/12 02:20:37;;;;;;;3.63;2.70;;;7.90;99.90;;;;;;4997254;28;20475;-45
2022/11/12 02:23:03;;;;;;;4.70;3.00;;;7.90;99.90;;;;;;5000593;28;20076;-45
2022/11/12 02:25:29;;;;;;;4.25;2.55;;;7.90;99.90;;;;;;4996432;28;20025;-45
2022/11/12 02:27:57;;;;;;;2.90;2.30;;;7.80;99.90;;;;;;4995962;28;20414;-47
2022/11/12 02:30:34;;;;;;;4.38;2.40;;;7.80;99.90;;;;;;4998321;28;20114;-45
2022/11/12 02:33:00;;;;;;;7.70;3.50;;;7.70;99.90;;;;;;4995536;28;20022;-48
2022/11/12 02:35:26;;;;;;;4.30;2.83;;;7.60;99.90;;;;;;4996284;28;20234;-48
2022/11/12 02:37:52;;;;;;;4.28;2.97;;;7.60;99.90;;;;;;4995141;28;20019;-47
2022/11/12 02:40:18;;;;;;;4.15;2.72;;;7.50;99.90;;;;;;5000902;28;20313;-46
2022/11/12 02:42:43;;;;;;;3.92;3.00;;;7.40;99.90;;;;;;4996641;28;20026;-46
2022/11/12 02:45:09;;;;;;;4.43;3.15;;;7.30;99.90;;;;;;5002405;28;20029;-45
2022/11/12 02:47:35;;;;;;;4.05;2.40;;;7.20;99.90;;;;;;4995742;28;20368;-46
2022/11/12 02:50:01;;;;;;;5.43;2.90;;;7.20;99.90;;;;;;5001693;28;20101;-45
2022/11/12 02:52:27;;;;;;;4.97;2.95;;;7.10;99.90;;;;;;4994869;28;20022;-45
2022/11/12 02:54:52;;;;;;;3.45;2.97;;;7.00;99.90;;;;;;4997061;28;20102;-45
2022/11/12 02:57:18;;;;;;;4.10;3.00;;;7.00;99.90;;;;;;4997431;28;20030;-45
2022/11/12 02:59:43;;;;;;;6.05;3.20;;;7.00;99.90;;;;;;4997344;28;20034;-45
2022/11/12 03:02:09;;;;;;;6.32;2.92;;;6.90;99.90;;;;;;4996969;28;20030;-45
2022/11/12 03:04:34;;;;;;;4.00;2.97;;;6.90;99.90;;;;;;4994982;28;20099;-45
2022/11/12 03:07:00;;;;;;;3.88;2.67;;;6.80;99.90;;;;;;4997046;28;20423;-45
2022/11/12 03:09:25;;;;;;;4.65;3.00;;;6.80;99.90;;;;;;4999365;28;20026;-45
2022/11/12 03:11:51;;;;;;;4.50;2.95;;;6.80;99.90;;;;;;4996811;28;20398;-44
2022/11/12 03:14:16;;;;;;;4.53;3.30;;;6.80;99.90;;;;;;5002090;28;20038;-45
2022/11/12 03:16:41;;;;;;;6.20;3.33;;;6.70;99.90;;;;;;4999166;28;20026;-44
2022/11/12 03:19:07;;;;;;;4.15;2.83;;;6.70;99.90;;;;;;4995491;28;20057;-45
2022/11/12 03:21:32;;;;;;;6.55;3.40;;;6.60;99.90;;;;;;4999196;28;20448;-44
2022/11/12 03:23:59;;;;;;;4.22;3.08;;;6.60;99.90;;;;;;4997001;28;20022;-45
2022/11/12 03:26:25;;;;;;;5.57;3.38;;;6.50;99.90;;;;;;4991325;28;20496;-45
2022/11/12 03:28:51;;;;;;;6.50;3.00;;;6.40;99.90;;;;;;5000914;28;20026;-46
2022/11/12 03:31:17;;;;;;;6.15;3.00;;;6.50;99.90;;;;;;4996928;28;20044;-49
2022/11/12 03:33:43;;;;;;;3.08;2.58;;;6.40;99.90;;;;;;4997208;28;20509;-47
2022/11/12 03:36:09;;;;;;;5.53;3.50;;;6.30;99.90;;;;;;4996806;28;20082;-49
2022/11/12 03:38:34;;;;;;;4.55;3.50;;;6.30;99.90;;;;;;4999088;28;20032;-45
2022/11/12 03:41:00;;;;;;;6.88;3.25;;;6.30;99.90;;;;;;4995520;28;20023;-46
2022/11/12 03:43:26;;;;;;;5.20;3.47;;;6.20;99.90;;;;;;4996050;28;20022;-46
2022/11/12 03:45:52;;;;;;;4.28;3.03;;;6.20;99.90;;;;;;4996221;28;20019;-46
2022/11/12 03:48:18;;;;;;;5.43;3.35;;;6.20;99.90;;;;;;4995943;28;20476;-46
2022/11/12 03:50:43;;;;;;;5.05;3.25;;;6.10;99.90;;;;;;4992055;28;20018;-45
2022/11/12 03:53:09;;;;;;;7.05;4.28;;;6.10;99.90;;;;;;4999820;28;20106;-45
2022/11/12 03:55:35;;;;;;;4.93;3.38;;;6.10;99.90;;;;;;4996281;28;20030;-46
2022/11/12 03:58:00;;;;;;;7.72;4.07;;;6.00;99.90;;;;;;4995562;28;20018;-44
2022/11/12 04:00:28;;;;;;;7.32;3.58;;;6.00;99.90;;;;;;5000923;28;20086;-45
2022/11/12 04:02:53;;;;;;;6.78;3.95;;;6.00;99.90;;;;;;4995154;28;20380;-45
2022/11/12 04:10:56;;;;;;;6.70;3.85;;;5.90;99.90;;;;;;5000758;28;20575;-47
2022/11/12 04:13:28;;;;;;;4.75;3.55;;;5.90;99.90;;;;;;4996765;28;20053;-45
2022/11/12 04:22:01;;;;;;;5.82;3.90;;;5.70;99.90;;;;;;5003807;28;20032;-49
2022/11/12 04:27:23;;;;;;;8.20;4.15;;;5.80;99.90;;;;;;4998920;28;20462;-45
2022/11/12 04:33:06;;;;;;;5.22;3.67;;;5.70;99.90;;;;;;5005878;28;20091;-47
2022/11/12 04:35:32;;;;;;;4.80;3.55;;;5.70;99.90;;;;;;4999776;28;20034;-48
2022/11/12 04:37:58;;;;;;;8.90;4.38;;;5.60;99.90;;;;;;4996564;28;20056;-46
2022/11/12 04:45:57;;;;;;;6.50;3.80;;;5.50;99.90;;;;;;4998733;28;20098;-45
2022/11/12 04:48:24;;;;;;;7.78;3.67;;;5.50;99.90;;;;;;4996416;28;20030;-46
2022/11/12 04:50:53;;;;;;;4.88;3.50;;;5.50;99.90;;;;;;4999593;28;20490;-45
2022/11/12 04:53:19;;;;;;;8.30;4.25;;;5.40;99.90;;;;;;5010203;28;20100;-46
2022/11/12 04:55:44;;;;;;;6.22;4.53;;;5.40;99.90;;;;;;5001423;28;20112;-45
2022/11/12 04:58:11;;;;;;;6.55;3.50;;;5.40;99.90;;;;;;4994405;28;20031;-48
2022/11/12 05:00:37;;;;;;;5.32;3.10;;;5.40;99.90;;;;;;4995923;28;20040;-46
2022/11/12 05:03:02;;;;;;;5.07;2.88;;;5.40;99.90;;;;;;4996491;28;20467;-45
2022/11/12 05:05:28;;;;;;;8.40;3.28;;;5.30;99.90;;;;;;4999415;28;20101;-45
2022/11/12 05:07:54;;;;;;;5.20;3.22;;;5.30;99.90;;;;;;4992905;28;20024;-45
2022/11/12 05:10:20;;;;;;;5.18;3.50;;;5.30;99.90;;;;;;4996924;28;20463;-44
2022/11/12 05:12:46;;;;;;;4.88;3.42;;;5.30;99.90;;;;;;4995718;28;20030;-45
2022/11/12 05:15:11;;;;;;;4.13;2.72;;;5.20;99.90;;;;;;4996304;28;20026;-44
2022/11/12 05:17:43;;;;;;;4.47;3.00;;;5.20;99.90;;;;;;4994667;28;20026;-44
2022/11/12 05:20:10;;;;;;;9.05;3.75;;;5.20;99.90;;;;;;5004032;28;20025;-45
2022/11/12 05:22:36;;;;;;;6.07;3.50;;;5.10;99.90;;;;;;4997398;28;20072;-44
2022/11/12 05:25:02;;;;;;;5.82;3.72;;;5.10;99.90;;;;;;5000375;28;20422;-44
2022/11/12 05:27:28;;;;;;;4.80;3.38;;;5.10;99.90;;;;;;5003282;28;20109;-45
2022/11/12 05:29:56;;;;;;;7.35;3.00;;;5.10;99.90;;;;;;5004033;28;20488;-44
2022/11/12 05:32:22;;;;;;;5.45;3.65;;;5.10;99.90;;;;;;4995892;28;20026;-45
2022/11/12 05:34:48;;;;;;;7.15;3.55;;;5.00;99.90;;;;;;4996596;28;20029;-47
2022/11/12 05:37:15;;;;;;;7.30;3.75;;;5.00;99.90;;;;;;5004608;28;20026;-45
2022/11/12 05:39:41;;;;;;;5.45;3.47;;;5.00;99.90;;;;;;4999022;28;20045;-45
2022/11/12 05:42:07;;;;;;;6.07;3.83;;;5.10;99.90;;;;;;5003974;28;20104;-44
2022/11/12 05:44:33;;;;;;;6.13;3.53;;;5.00;99.90;;;;;;4997363;28;20037;-45
2022/11/12 05:46:59;;;;;;;7.53;3.10;;;5.00;99.90;;;;;;4998546;28;20019;-45
2022/11/12 05:49:25;;;;;;;8.10;3.38;;;5.00;99.90;;;;;;4997377;28;20048;-45
2022/11/12 05:51:51;;;;;;;6.82;3.20;;;5.00;99.90;;;;;;4997972;28;20026;-44
2022/11/12 05:54:20;;;;;;;8.88;3.55;;;5.00;99.90;;;;;;4995989;28;20033;-45
2022/11/12 05:56:46;;;;;;;5.63;3.38;;;5.00;99.90;;;;;;5011075;28;20063;-46
2022/11/12 05:59:13;;;;;;;6.05;3.60;;;5.00;99.90;;;;;;5023568;28;20466;-44
2022/11/12 06:01:45;;;;;;;6.30;3.72;;;4.90;99.90;;;;;;5038188;28;20492;-44
2022/11/12 06:04:14;;;;;;;5.22;2.90;;;4.90;99.90;;;;;;4998946;28;20030;-44
2022/11/12 06:06:41;;;;;;;5.20;2.95;;;4.90;99.90;;;;;;4997435;28;20029;-45
2022/11/12 06:09:08;;;;;;;5.60;2.90;;;4.80;99.90;;;;;;4998544;28;20026;-44
2022/11/12 06:11:34;;;;;;;7.35;3.70;;;4.80;99.90;;;;;;4996379;28;20026;-44
2022/11/12 06:14:01;;;;;;;8.07;3.90;;;4.80;99.90;;;;;;4995734;28;20296;-44
2022/11/12 06:16:27;;;;;;;5.82;3.88;;;4.80;99.90;;;;;;5037349;28;20024;-44
2022/11/12 06:18:52;;;;;;;5.47;3.95;;;4.90;99.90;;;;;;5096448;28;20042;-44
2022/11/12 06:21:18;;;;;;;5.43;3.22;;;4.90;99.90;;;;;;5059765;28;20021;-46
2022/11/12 06:24:10;;;;;;;4.93;3.53;;;4.90;99.90;;;;;;4996845;28;20068;-44
2022/11/12 06:26:36;;;;;;;6.50;2.83;;;4.90;99.90;;;;;;5025076;28;20036;-44
2022/11/12 06:29:02;;;;;;;6.88;2.83;;;4.80;99.90;;;;;;5099568;28;20024;-44
2022/11/12 06:31:27;;;;;;;4.60;3.08;;;4.90;99.90;;;;;;5110349;28;20038;-44
2022/11/12 06:33:53;;;;;;;5.20;3.53;;;4.80;99.90;;;;;;5110406;28;20059;-44
2022/11/12 06:36:19;;;;;;;9.50;3.80;;;4.70;99.90;;;;;;5110456;28;20431;-44
2022/11/12 06:38:45;;;;;;;6.57;3.17;;;4.80;99.90;;;;;;5110402;28;20038;-44
2022/11/12 06:41:12;;;;;;;8.70;3.30;;;4.80;99.90;;;;;;5110187;28;20459;-44
2022/11/12 06:43:38;;;;;;;6.32;3.60;;;4.70;99.90;;;;;;5110545;28;20065;-45
2022/11/12 06:46:07;;;;;;;5.82;3.17;;;4.70;99.90;;;;;;5110239;28;20392;-43
2022/11/12 06:48:33;;;;;;;5.05;3.30;;;4.70;99.90;;;;;;5110325;28;20069;-44
2022/11/12 06:51:08;;;;;;;6.72;4.32;;;4.80;99.90;;;;;;5110008;28;20024;-45
2022/11/12 06:53:34;;;;;;;4.78;3.55;;;4.80;99.90;;;;;;5103613;28;20099;-43
2022/11/12 06:56:05;;;;;;;10.50;3.72;;;4.80;99.90;;;;;;4999152;28;20114;-44
2022/11/12 06:58:31;;;;;;;6.30;2.97;;;4.80;99.90;;;;;;4995678;28;20030;-44
2022/11/12 07:00:57;;;;;;;11.98;4.55;;;4.80;99.90;;;;;;4991276;28;20053;-43
2022/11/12 07:03:23;;;;;;;5.95;3.85;;;4.90;99.90;;;;;;5000985;28;20086;-44
2022/11/12 07:05:48;;;;;;;5.78;3.20;;;4.90;99.90;;;;;;4996124;28;20394;-43
2022/11/12 07:08:13;;;;;;;10.45;3.47;;;4.80;99.90;;;;;;4997737;28;20022;-44
2022/11/12 07:10:39;;;;;;;11.88;4.57;;;4.90;99.90;;;;;;4996124;28;20014;-44
2022/11/12 07:13:05;;;;;;;5.82;3.85;;;4.90;99.90;;;;;;4999986;28;20018;-44
2022/11/12 07:15:31;;;;;;;4.70;3.30;;;5.00;99.90;;;;;;4998761;28;20034;-44
2022/11/12 07:17:57;;;;;;;6.22;3.50;;;5.00;99.90;;;;;;4996613;28;20022;-43
2022/11/12 07:20:22;;;;;;;7.88;4.03;;;5.00;99.90;;;;;;4994916;28;20045;-44
2022/11/12 07:22:47;;;;;;;7.00;3.45;;;5.00;99.90;;;;;;5000106;28;20386;-45
2022/11/12 07:25:13;;;;;;;5.15;3.03;;;5.00;99.90;;;;;;5004912;28;20098;-44
2022/11/12 07:27:39;;;;;;;7.95;3.80;;;5.10;99.90;;;;;;4997817;28;20030;-44
2022/11/12 07:30:12;;;;;;;6.82;3.80;;;5.10;99.90;;;;;;4995716;28;20109;-44
2022/11/12 07:32:38;;;;;;;9.25;3.20;;;5.10;99.90;;;;;;4996970;28;20135;-44
2022/11/12 07:35:04;;;;;;;6.57;3.42;;;5.00;99.90;;;;;;4995152;28;20503;-45
2022/11/12 07:37:30;;;;;;;7.22;3.80;;;5.00;99.90;;;;;;4995334;28;20023;-44
2022/11/12 07:39:56;;;;;;;10.23;4.13;;;5.10;99.90;;;;;;4997717;28;20401;-44
2022/11/12 07:42:22;;;;;;;6.70;3.80;;;5.10;99.90;;;;;;4993981;28;20034;-44
2022/11/12 07:44:48;;;;;;;7.65;4.20;;;5.20;99.90;;;;;;4994707;28;20014;-44
2022/11/12 07:47:14;;;;;;;6.88;4.32;;;5.20;99.90;;;;;;4996731;28;20494;-44
2022/11/12 07:49:40;;;;;;;9.00;4.95;;;5.20;99.90;;;;;;4995318;28;20026;-44
2022/11/12 07:52:06;;;;;;;6.60;3.92;;;5.20;99.90;;;;;;4995586;28;20023;-44
2022/11/12 07:54:31;;;;;;;7.05;3.75;;;5.30;99.90;;;;;;5000595;28;20022;-44
2022/11/12 07:56:57;;;;;;;8.25;3.47;;;5.30;99.90;;;;;;4997622;28;20033;-44
2022/11/12 07:59:23;;;;;;;8.10;3.50;;;5.30;99.90;;;;;;5025814;28;20125;-44
2022/11/12 08:01:49;;;;;;;5.90;4.13;;;5.40;99.90;;;;;;4994411;28;20449;-44
2022/11/12 08:04:15;;;;;;;4.40;3.67;;;5.40;99.90;;;;;;4996297;28;20041;-44
2022/11/12 08:06:41;;;;;;;8.52;3.65;;;5.50;99.90;;;;;;4995027;28;20098;-44
2022/11/12 08:09:08;;;;;;;5.07;3.15;;;5.50;99.90;;;;;;4994692;28;20026;-44
2022/11/12 08:11:35;;;;;;;7.72;3.30;;;5.50;99.90;;;;;;5000917;28;20440;-44
2022/11/12 08:14:01;;;;;;;4.72;2.90;;;5.50;99.90;;;;;;4994564;28;20479;-44
2022/11/12 08:16:27;;;;;;;7.43;3.80;;;5.60;99.90;;;;;;4997349;28;20061;-44
2022/11/12 08:18:52;;;;;;;6.63;4.18;;;5.60;99.90;;;;;;4994037;28;20037;-44
2022/11/12 08:21:18;;;;;;;6.30;4.10;;;5.80;99.90;;;;;;4997469;28;20026;-45
2022/11/12 08:23:44;;;;;;;7.85;4.35;;;6.00;99.90;;;;;;4998620;28;20106;-44
2022/11/12 08:26:13;;;;;;;7.47;4.20;;;6.00;99.90;;;;;;4993887;28;20058;-44
2022/11/12 08:28:39;;;;;;;6.10;3.97;;;6.10;99.90;;;;;;4998372;28;20018;-44
2022/11/12 08:31:06;;;;;;;7.45;3.75;;;6.10;99.90;;;;;;5002990;28;20029;-44
2022/11/12 08:33:34;;;;;;;4.93;3.60;;;6.20;99.90;;;;;;4995879;28;20026;-44
2022/11/12 08:36:04;;;;;;;5.38;3.83;;;6.20;99.90;;;;;;4991138;28;20022;-44
2022/11/12 08:38:30;;;;;;;6.13;3.85;;;6.30;99.90;;;;;;4994134;28;20105;-44
2022/11/12 08:41:10;;;;;;;3.80;3.20;;;6.40;99.90;;;;;;4994422;28;20106;-44
2022/11/12 08:43:36;;;;;;;4.28;3.00;;;6.50;99.90;;;;;;4994989;28;20014;-45
2022/11/12 08:46:03;;;;;;;5.05;3.50;;;6.70;99.90;;;;;;4997168;28;20022;-44
2022/11/12 08:48:29;;;;;;;4.97;3.35;;;6.90;99.90;;;;;;4994261;28;20099;-44
2022/11/12 08:50:55;;;;;;;6.22;3.33;;;7.00;99.90;;;;;;4997342;28;20027;-44
2022/11/12 08:53:23;;;;;;;9.82;4.47;;;7.20;99.90;;;;;;4992590;28;20078;-44
2022/11/12 08:55:52;;;;;;;13.10;5.43;;;7.40;99.90;;;;;;4994064;28;20026;-45
2022/11/12 08:58:18;;;;;;;8.47;5.97;;;7.50;99.90;;;;;;5000332;28;20567;-44
2022/11/12 09:00:45;;;;;;;8.18;5.70;;;7.70;99.90;;;;;;4995735;28;20152;-44
2022/11/12 09:03:14;;;;;;;9.55;6.20;;;7.90;99.90;;;;;;5000213;28;20021;-44
2022/11/12 09:05:40;;;;;;;11.55;6.25;;;7.90;99.90;;;;;;4997890;28;20034;-44
2022/11/12 09:08:08;;;;;;;8.52;5.43;;;8.00;99.90;;;;;;4996589;28;20022;-44
2022/11/12 09:10:35;;;;;;;8.88;5.95;;;8.20;99.90;;;;;;5003610;28;20029;-44
2022/11/12 09:13:01;;;;;;;9.40;5.82;;;8.20;99.90;;;;;;4995424;28;20018;-44
2022/11/12 09:15:28;;;;;;;12.65;6.85;;;8.20;99.90;;;;;;5009204;28;20109;-44
2022/11/12 09:17:59;;;;;;;10.93;5.60;;;8.30;99.90;;;;;;5002433;28;20018;-45
2022/11/12 09:20:27;;;;;;;8.68;5.47;;;8.50;99.90;;;;;;4997521;28;20075;-44
2022/11/12 09:22:52;;;;;;;9.32;5.80;;;8.60;99.90;;;;;;4999480;28;20509;-45
2022/11/12 09:25:18;;;;;;;7.35;5.22;;;8.60;99.90;;;;;;4998281;28;20051;-45
2022/11/12 09:27:44;;;;;;;11.63;5.97;;;8.60;99.90;;;;;;4999632;28;20026;-44
2022/11/12 09:30:10;;;;;;;12.30;5.60;;;8.80;99.90;;;;;;4999113;28;20034;-45
2022/11/12 09:32:35;;;;;;;9.60;5.80;;;8.90;99.90;;;;;;4997497;28;20030;-44
2022/11/12 09:35:01;;;;;;;8.57;5.00;;;9.00;99.90;;;;;;4997800;28;20424;-44
2022/11/12 09:37:27;;;;;;;9.68;5.50;;;9.10;99.90;;;;;;5001209;28;20055;-44
2022/11/12 09:39:53;;;;;;;7.50;5.43;;;9.30;99.90;;;;;;5003904;28;20513;-45
2022/11/12 09:42:20;;;;;;;8.30;5.53;;;9.50;99.90;;;;;;5004614;28;20033;-44
2022/11/12 09:44:59;;;;;;;8.80;5.03;;;9.60;99.90;;;;;;5005301;28;20022;-44
2022/11/12 09:47:41;;;;;;;6.78;5.10;;;9.60;99.90;;;;;;5001745;28;20110;-44
2022/11/12 09:50:25;;;;;;;7.00;5.75;;;9.70;99.90;;;;;;5001221;28;20101;-44
2022/11/12 09:53:00;;;;;;;10.18;5.53;;;10.00;99.90;;;;;;4995339;28;20023;-44
2022/11/12 09:55:32;;;;;;;12.25;5.90;;;10.10;99.90;;;;;;5002762;28;20040;-44
2022/11/12 09:57:58;;;;;;;8.82;5.20;;;10.40;99.90;;;;;;4996953;28;20053;-44
2022/11/12 10:00:23;;;;;;;9.00;5.55;;;10.50;99.90;;;;;;4997168;28;20054;-45
2022/11/12 10:02:58;;;;;;;8.48;5.82;;;10.60;99.90;;;;;;4996555;28;20071;-44
2022/11/12 10:05:35;;;;;;;8.20;5.38;;;10.70;99.90;;;;;;5003920;28;20079;-44
2022/11/12 10:08:33;;;;;;;7.28;5.05;;;10.70;99.90;;;;;;4983593;28;20042;-46
2022/11/12 10:11:21;;;;;;;6.80;4.57;;;11.00;99.90;;;;;;4997746;28;20105;-44
2022/11/12 10:14:01;;;;;;;5.63;4.75;;;11.20;99.90;;;;;;5000110;28;20026;-45
2022/11/12 10:16:46;;;;;;;;;;;11.30;99.90;;;;;;5000621;28;20033;-44
2022/11/12 10:19:38;;;;;;;7.00;4.57;;;11.40;99.90;;;;;;4996924;28;20453;-44
2022/11/12 10:22:23;;;;;;;6.28;3.75;;;11.40;99.90;;;;;;4998045;28;20113;-44
2022/11/12 10:24:49;;;;;;;9.00;4.72;;;11.50;99.90;;;;;;4996090;28;20387;-44
2022/11/12 10:27:18;;;;;;;9.05;5.35;;;11.60;99.90;;;;;;5010018;28;20030;-44
2022/11/12 10:30:01;;;;;;;9.77;4.60;;;11.60;99.90;;;;;;4993446;28;20492;-44
2022/11/12 10:32:26;;;;;;;6.60;4.68;;;11.80;99.90;;;;;;4998659;28;20033;-44
2022/11/12 10:34:52;;;;;;;6.80;5.30;;;11.90;99.90;;;;;;4996102;28;20022;-44
2022/11/12 10:37:46;;;;;;;9.90;7.05;;;12.00;99.90;;;;;;4995433;28;20034;-44
2022/11/12 10:40:24;;;;;;;10.55;7.53;;;12.10;99.90;;;;;;4995583;28;20026;-44
2022/11/12 10:43:03;;;;;;;10.80;7.30;;;12.20;99.90;;;;;;4994891;28;20140;-44
2022/11/12 10:45:31;;;;;;;11.60;7.22;;;12.00;99.90;;;;;;4998937;28;20026;-44
2022/11/12 10:47:58;;;;;;;11.02;7.55;;;12.10;99.90;;;;;;4997748;28;20480;-44
2022/11/12 10:50:40;;;;;;;10.85;7.22;;;12.30;99.90;;;;;;4999236;28;20057;-44
2022/11/12 10:53:09;;;;;;;9.05;7.07;;;12.40;99.90;;;;;;4996155;28;20030;-44
2022/11/12 10:55:56;;;;;;;9.43;6.63;;;12.40;99.90;;;;;;5000496;28;20026;-44
2022/11/12 10:58:22;;;;;;;8.40;6.05;;;12.50;99.90;;;;;;5005390;28;20041;-47
2022/11/12 11:00:55;;;;;;;10.63;6.80;;;12.60;99.90;;;;;;4994985;28;20477;-44
2022/11/12 11:03:24;;;;;;;9.30;6.57;;;12.70;99.90;;;;;;4999555;28;20030;-46
2022/11/12 11:05:52;;;;;;;9.85;7.00;;;12.80;99.90;;;;;;4998595;28;20475;-49
2022/11/12 11:08:35;;;;;;;14.45;6.63;;;12.90;99.90;;;;;;4994801;28;20030;-46
2022/11/12 11:11:21;;;;;;;8.13;6.15;;;13.10;99.90;;;;;;4994362;28;20053;-44
2022/11/12 11:13:48;;;;;;;10.18;6.32;;;13.20;99.90;;;;;;4998550;28;20099;-45
2022/11/12 11:16:23;;;;;;;10.15;6.57;;;13.40;99.90;;;;;;5000509;28;20086;-45
2022/11/12 11:18:53;;;;;;;8.20;6.00;;;13.80;99.90;;;;;;5001749;28;20041;-44
2022/11/12 11:21:38;;;;;;;9.70;6.63;;;14.00;99.90;;;;;;4992526;28;20041;-45
2022/11/12 11:24:32;;;;;;;9.95;6.10;;;14.20;99.90;;;;;;5012241;28;20025;-44
2022/11/12 11:27:45;;;;;;;6.88;5.70;;;14.70;99.90;;;;;;5022863;28;20032;-45
2022/11/12 11:30:17;;;;;;;8.75;5.68;;;15.10;99.90;;;;;;5015277;28;20509;-44
2022/11/12 11:33:10;;;;;;;9.20;5.82;;;16.00;99.90;;;;;;5024235;28;20110;-44
2022/11/12 11:36:03;;;;;;;7.75;5.15;;;16.80;99.80;;;;;;5026031;28;20029;-46
2022/11/12 11:38:38;;;;;;;7.15;5.20;;;17.50;99.10;;;;;;5008878;28;20018;-45
2022/11/12 11:41:29;;;;;;;7.00;5.00;;;18.50;96.60;;;;;;5008625;28;20036;-48
2022/11/12 11:44:06;;;;;;;10.43;4.85;;;19.60;95.00;;;;;;5003376;28;20080;-45
2022/11/12 11:47:08;;;;;;;6.80;5.05;;;20.00;92.70;;;;;;4999906;28;20061;-44
2022/11/12 11:49:36;;;;;;;8.05;4.88;;;19.90;92.00;;;;;;4995045;28;20855;-44
2022/11/12 11:52:19;;;;;;;8.55;5.80;;;19.50;92.20;;;;;;4996719;28;20394;-44
2022/11/12 11:55:06;;;;;;;7.57;5.10;;;19.00;91.50;;;;;;4999146;28;20071;-47
2022/11/12 11:57:56;;;;;;;6.20;4.95;;;18.80;92.00;;;;;;4996475;28;20015;-44
2022/11/12 12:00:24;;;;;;;7.25;4.93;;;18.60;91.90;;;;;;4995780;28;20052;-44
2022/11/12 12:03:16;;;;;;;6.18;5.00;;;18.60;92.60;;;;;;4995056;28;20019;-46
2022/11/12 12:06:04;;;;;;;6.63;5.07;;;18.80;91.80;;;;;;5002677;28;20045;-45
2022/11/12 12:08:44;;;;;;;9.18;5.10;;;18.70;91.40;;;;;;5008258;28;20548;-44
2022/11/12 12:11:34;;;;;;;6.53;4.38;;;18.70;91.70;;;;;;5003514;28;20038;-46
2022/11/12 12:14:17;;;;;;;6.60;4.40;;;18.50;92.00;;;;;;5010094;28;20049;-45
2022/11/12 12:17:02;;;;;;;9.35;4.30;;;18.40;92.00;;;;;;5006423;28;20283;-44
2022/11/12 12:19:44;;;;;;;6.15;4.38;;;18.30;92.50;;;;;;5008591;28;20044;-44
2022/11/12 12:22:14;;;;;;;6.93;4.07;;;18.20;93.50;;;;;;5014038;28;20161;-45
2022/11/12 12:25:06;;;;;;;8.10;4.32;;;18.20;92.50;;;;;;5010631;28;20105;-45
2022/11/12 12:27:37;;;;;;;6.80;3.75;;;18.00;92.60;;;;;;5000466;28;20033;-45
2022/11/12 12:30:20;;;;;;;6.82;4.80;;;17.90;93.70;;;;;;5009357;28;20037;-44
2022/11/12 12:32:57;;;;;;;9.63;5.03;;;17.80;93.60;;;;;;4999677;28;20030;-44
2022/11/12 12:35:29;;;;;;;4.82;3.63;;;17.90;92.00;;;;;;5025068;28;20421;-44
2022/11/12 12:38:17;;;;;;;5.05;3.53;;;17.80;92.10;;;;;;5015586;28;20052;-44
2022/11/12 12:40:50;;;;;;;5.70;3.53;;;17.70;92.90;;;;;;5006988;28;20026;-45
2022/11/12 12:43:25;;;;;;;6.82;4.30;;;17.60;93.80;;;;;;5000681;28;20431;-44
2022/11/12 12:45:51;;;;;;;5.32;4.03;;;17.50;93.60;;;;;;4999343;28;20536;-45
2022/11/12 12:48:23;;;;;;;7.18;3.90;;;17.40;93.80;;;;;;5005350;28;20114;-44
2022/11/12 12:50:51;;;;;;;5.43;2.17;;;17.30;93.20;;;;;;5004404;28;20045;-44
2022/11/12 12:53:28;;;;;;;3.50;2.03;;;17.30;90.40;;;;;;5001465;28;20025;-45
2022/11/12 12:55:57;;;;;;;4.95;2.13;;;16.90;90.70;;;;;;5003669;28;20398;-44
2022/11/12 12:58:43;;;;;;;7.35;2.10;;;16.90;90.20;;;;;;5000831;28;20026;-44
2022/11/12 13:01:21;;;;;;;3.60;1.90;;;16.70;91.00;;;;;;5001318;28;20095;-47
2022/11/12 13:04:07;;;;;;;4.10;2.00;;;16.50;90.90;;;;;;5002499;28;20921;-44
2022/11/12 13:06:58;;;;;;;5.72;2.60;;;16.30;91.90;;;;;;4994366;28;20116;-44
2022/11/12 13:09:25;;;;;;;3.30;2.20;;;16.10;92.80;;;;;;4993248;28;20022;-44
2022/11/12 13:14:30;;;;;;;5.43;2.42;;;15.70;95.10;;;;;;4993935;28;20129;-44
2022/11/12 13:17:41;;;;;;;3.13;1.80;;;15.60;94.80;;;;;;4993304;28;20781;-44
2022/11/12 13:20:07;;;;;;;3.78;2.33;;;15.40;95.00;;;;;;4998422;28;20167;-45
2022/11/12 13:22:35;;;;;;;3.97;2.17;;;15.30;94.90;;;;;;4994687;28;20105;-45
2022/11/12 13:25:04;;;;;;;5.40;2.63;;;15.30;96.20;;;;;;4998188;28;20022;-45
2022/11/12 13:27:38;;;;;;;6.07;2.75;;;15.20;95.60;;;;;;4996848;28;20444;-44
2022/11/12 13:30:13;;;;;;;4.47;2.55;;;15.00;96.80;;;;;;4998576;28;20743;-45
2022/11/12 13:32:50;;;;;;;5.28;2.67;;;14.90;96.90;;;;;;4998509;28;20414;-44
2022/11/12 13:35:16;;;;;;;5.65;2.45;;;14.90;96.70;;;;;;4993433;28;20526;-45